Time;durP1;ratioP1;P1;durP2;ratioP2;P2;SDS_P1;SDS_P2;PMS_P1;PMS_P2;Temp;Humidity;BMP_temperature;BMP_pressure;BME280_temperature;BME280_humidity;BME280_pressure;Samples;Min_cycle;Max_cycle;Signal;HPM_P1;HPM_P2
2023/09/27 00:00:44;;;;;;;13.13;11.75;;;14.50;99.90;;;;;;5106772;28;20035;-60
2023/09/27 00:03:11;;;;;;;14.80;12.15;;;14.50;99.90;;;;;;5103187;28;20040;-59
2023/09/27 00:05:37;;;;;;;13.38;11.98;;;14.50;99.90;;;;;;5100498;28;20031;-60
2023/09/27 00:08:04;;;;;;;15.35;12.63;;;14.60;99.90;;;;;;5101981;28;20043;-60
2023/09/27 00:10:29;;;;;;;14.32;12.10;;;14.50;99.90;;;;;;5082608;28;20122;-60
2023/09/27 00:12:55;;;;;;;13.10;11.70;;;14.60;99.90;;;;;;5111416;28;20463;-61
2023/09/27 00:15:21;;;;;;;15.40;12.02;;;14.50;99.90;;;;;;5100975;28;20080;-60
2023/09/27 00:17:48;;;;;;;13.23;11.65;;;14.50;99.90;;;;;;5084341;28;20410;-61
2023/09/27 00:20:17;;;;;;;15.07;13.40;;;14.50;99.90;;;;;;5086047;28;20048;-62
2023/09/27 00:22:43;;;;;;;15.50;12.10;;;14.50;99.90;;;;;;5084974;28;20097;-61
2023/09/27 00:25:09;;;;;;;14.35;12.88;;;14.50;99.90;;;;;;5104879;28;20085;-61
2023/09/27 00:27:35;;;;;;;13.73;11.85;;;14.50;99.90;;;;;;5084148;28;20032;-61
2023/09/27 00:30:02;;;;;;;13.73;12.32;;;14.50;99.90;;;;;;5110437;28;20043;-61
2023/09/27 00:32:28;;;;;;;18.45;11.70;;;14.50;99.90;;;;;;5077138;28;20320;-61
2023/09/27 00:34:54;;;;;;;16.50;12.30;;;14.40;99.90;;;;;;5093863;28;20470;-61
2023/09/27 00:37:20;;;;;;;15.60;13.07;;;14.40;99.90;;;;;;5084303;28;20032;-61
2023/09/27 00:39:45;;;;;;;13.75;12.35;;;14.40;99.90;;;;;;5096235;28;20486;-60
2023/09/27 00:42:12;;;;;;;15.07;13.20;;;14.40;99.90;;;;;;5082224;28;20031;-61
2023/09/27 00:44:38;;;;;;;14.70;13.15;;;14.40;99.90;;;;;;5106335;28;20118;-61
2023/09/27 00:47:05;;;;;;;14.07;11.98;;;14.40;99.90;;;;;;5092155;28;20126;-60
2023/09/27 00:49:32;;;;;;;14.95;12.77;;;14.40;99.90;;;;;;5071277;28;20406;-61
2023/09/27 00:51:58;;;;;;;14.35;12.70;;;14.30;99.90;;;;;;5110901;28;20119;-62
2023/09/27 00:54:25;;;;;;;17.80;12.60;;;14.40;99.90;;;;;;5094630;28;20494;-61
2023/09/27 00:56:52;;;;;;;15.55;14.00;;;14.30;99.90;;;;;;5080802;28;20043;-61
2023/09/27 00:59:18;;;;;;;14.90;13.40;;;14.30;99.90;;;;;;5081620;28;20211;-61
2023/09/27 01:01:46;;;;;;;15.02;13.32;;;14.30;99.90;;;;;;5110501;28;20481;-61
2023/09/27 01:04:14;;;;;;;16.40;13.40;;;14.30;99.90;;;;;;5101795;28;20051;-61
2023/09/27 01:06:41;;;;;;;15.82;13.45;;;14.30;99.90;;;;;;5105192;28;20059;-61
2023/09/27 01:09:07;;;;;;;18.60;14.77;;;14.30;99.90;;;;;;5084463;28;20036;-61
2023/09/27 01:11:33;;;;;;;16.75;14.95;;;14.20;99.90;;;;;;5088940;28;20054;-61
2023/09/27 01:13:59;;;;;;;16.10;14.52;;;14.20;99.90;;;;;;5113967;28;20607;-61
2023/09/27 01:16:25;;;;;;;15.98;14.07;;;14.30;99.90;;;;;;5101112;28;20027;-61
2023/09/27 01:18:50;;;;;;;15.25;13.70;;;14.30;99.90;;;;;;5093854;28;20516;-61
2023/09/27 01:21:19;;;;;;;15.25;13.63;;;14.20;99.90;;;;;;5094843;28;20035;-61
2023/09/27 01:23:49;;;;;;;17.83;14.00;;;14.20;99.90;;;;;;5094058;28;20040;-62
2023/09/27 01:26:16;;;;;;;15.68;13.85;;;14.20;99.90;;;;;;5092373;28;20402;-61
2023/09/27 01:28:46;;;;;;;16.05;14.45;;;14.20;99.90;;;;;;5093247;28;20097;-61
2023/09/27 01:31:12;;;;;;;14.65;13.15;;;14.20;99.90;;;;;;5093110;28;20047;-61
2023/09/27 01:33:37;;;;;;;14.95;13.43;;;14.20;99.90;;;;;;5095928;28;20495;-61
2023/09/27 01:36:03;;;;;;;16.00;14.27;;;14.20;99.90;;;;;;5096907;28;20031;-61
2023/09/27 01:38:33;;;;;;;15.32;13.55;;;14.10;99.90;;;;;;5101791;28;20058;-61
2023/09/27 01:40:59;;;;;;;16.70;14.23;;;14.10;99.90;;;;;;5077824;28;20043;-61
2023/09/27 01:43:25;;;;;;;15.75;13.82;;;14.10;99.90;;;;;;5081402;28;20105;-61
2023/09/27 01:45:50;;;;;;;15.10;13.60;;;14.00;99.90;;;;;;5085231;28;20052;-61
2023/09/27 01:48:17;;;;;;;15.68;13.77;;;14.00;99.90;;;;;;5082413;28;20036;-61
2023/09/27 01:50:43;;;;;;;15.40;13.88;;;13.90;99.90;;;;;;5092445;28;20071;-61
2023/09/27 01:53:08;;;;;;;15.38;13.65;;;13.90;99.90;;;;;;5080544;28;20032;-60
2023/09/27 01:55:34;;;;;;;15.48;13.88;;;13.90;99.90;;;;;;5085402;28;20032;-60
2023/09/27 01:58:01;;;;;;;16.17;14.57;;;13.90;99.90;;;;;;5075970;28;20501;-61
2023/09/27 02:00:26;;;;;;;18.10;15.45;;;13.80;99.90;;;;;;5073380;28;20062;-61
2023/09/27 02:03:00;;;;;;;15.73;14.13;;;13.80;99.90;;;;;;5077138;28;20045;-60
2023/09/27 02:05:27;;;;;;;17.27;14.80;;;13.80;99.90;;;;;;5089598;28;20505;-60
2023/09/27 02:07:53;;;;;;;15.52;13.93;;;13.70;99.90;;;;;;5092831;28;20054;-62
2023/09/27 02:10:19;;;;;;;16.88;14.55;;;13.70;99.90;;;;;;5089940;28;20461;-60
2023/09/27 02:12:45;;;;;;;19.95;15.20;;;13.70;99.90;;;;;;5085400;28;20857;-61
2023/09/27 02:15:12;;;;;;;16.10;14.40;;;13.60;99.90;;;;;;5084293;28;20119;-60
2023/09/27 02:17:39;;;;;;;19.10;15.40;;;13.60;99.90;;;;;;5076864;28;20083;-61
2023/09/27 02:20:12;;;;;;;16.45;14.73;;;13.60;99.90;;;;;;5080805;28;20040;-61
2023/09/27 02:22:42;;;;;;;16.45;14.65;;;13.60;99.90;;;;;;5079062;28;20037;-61
2023/09/27 02:25:10;;;;;;;16.35;14.75;;;13.60;99.90;;;;;;5077501;28;20131;-60
2023/09/27 02:27:39;;;;;;;17.50;15.73;;;13.60;99.90;;;;;;5080599;28;20040;-61
2023/09/27 02:30:08;;;;;;;16.10;14.48;;;13.60;99.90;;;;;;5089177;28;20028;-60
2023/09/27 02:32:34;;;;;;;17.92;15.48;;;13.50;99.90;;;;;;5092204;28;20036;-60
2023/09/27 02:35:00;;;;;;;16.08;14.40;;;13.50;99.90;;;;;;5085291;28;20513;-61
2023/09/27 02:37:26;;;;;;;17.83;16.02;;;13.40;99.90;;;;;;5073579;28;20112;-60
2023/09/27 02:39:52;;;;;;;16.80;15.07;;;13.50;99.90;;;;;;5074950;28;20122;-60
2023/09/27 02:42:17;;;;;;;17.40;15.60;;;13.40;99.90;;;;;;5074982;28;20040;-61
2023/09/27 02:44:43;;;;;;;17.73;15.07;;;13.40;99.90;;;;;;5099137;28;20040;-61
2023/09/27 02:47:09;;;;;;;15.60;14.00;;;13.40;99.90;;;;;;5112333;28;20074;-61
2023/09/27 02:49:35;;;;;;;17.70;15.13;;;13.30;99.90;;;;;;5082921;28;20479;-61
2023/09/27 02:52:00;;;;;;;18.95;15.23;;;13.30;99.90;;;;;;5106473;28;20406;-61
2023/09/27 02:54:27;;;;;;;16.98;15.27;;;13.30;99.90;;;;;;5085801;28;20105;-60
2023/09/27 02:56:53;;;;;;;15.80;14.27;;;13.30;99.90;;;;;;5077020;28;20028;-61
2023/09/27 02:59:18;;;;;;;16.75;15.07;;;13.30;99.90;;;;;;5101104;28;20085;-60
2023/09/27 03:01:44;;;;;;;18.60;15.80;;;13.30;99.90;;;;;;5107444;28;20031;-61
2023/09/27 03:04:11;;;;;;;18.05;16.17;;;13.20;99.90;;;;;;5097112;28;20038;-61
2023/09/27 03:06:37;;;;;;;18.00;15.82;;;13.20;99.90;;;;;;5087163;28;20440;-61
2023/09/27 03:09:08;;;;;;;18.38;15.70;;;13.10;99.90;;;;;;5102871;28;20039;-62
2023/09/27 03:11:34;;;;;;;17.90;15.98;;;13.10;99.90;;;;;;5082158;28;20050;-60
2023/09/27 03:14:00;;;;;;;21.33;17.02;;;13.10;99.90;;;;;;5056502;28;20039;-60
2023/09/27 03:16:25;;;;;;;16.73;14.95;;;13.00;99.90;;;;;;5080630;28;20394;-61
2023/09/27 03:18:51;;;;;;;17.95;15.68;;;13.00;99.90;;;;;;5090542;28;20040;-60
2023/09/27 03:21:17;;;;;;;18.02;16.17;;;13.10;99.90;;;;;;5096437;28;20102;-60
2023/09/27 03:23:43;;;;;;;20.77;15.43;;;13.10;99.90;;;;;;5091165;28;20036;-60
2023/09/27 03:26:09;;;;;;;16.63;14.95;;;13.10;99.90;;;;;;5095669;28;20046;-62
2023/09/27 03:28:35;;;;;;;16.50;14.80;;;13.10;99.90;;;;;;5095446;28;20486;-60
2023/09/27 03:31:02;;;;;;;17.17;15.38;;;13.10;99.90;;;;;;5103106;28;20044;-61
2023/09/27 03:33:27;;;;;;;18.40;15.50;;;13.10;99.90;;;;;;5091403;28;20039;-60
2023/09/27 03:35:54;;;;;;;17.33;15.40;;;13.10;99.90;;;;;;5097842;28;20172;-61
2023/09/27 03:38:19;;;;;;;18.10;14.90;;;13.10;99.90;;;;;;5102508;28;20032;-61
2023/09/27 03:40:45;;;;;;;16.55;14.85;;;13.10;99.90;;;;;;5084530;28;20041;-61
2023/09/27 03:43:11;;;;;;;16.80;15.07;;;13.00;99.90;;;;;;5095008;28;20060;-61
2023/09/27 03:45:36;;;;;;;16.70;14.82;;;13.00;99.90;;;;;;5072473;28;20067;-61
2023/09/27 03:48:02;;;;;;;16.70;14.93;;;13.00;99.90;;;;;;5093070;28;20043;-61
2023/09/27 03:50:29;;;;;;;18.90;14.18;;;13.00;99.90;;;;;;5094298;28;20072;-61
2023/09/27 03:52:58;;;;;;;17.17;14.30;;;12.90;99.90;;;;;;5087116;28;20482;-60
2023/09/27 03:55:25;;;;;;;18.75;14.52;;;12.90;99.90;;;;;;5093550;28;20047;-61
2023/09/27 03:57:54;;;;;;;17.13;14.88;;;12.90;99.90;;;;;;5101865;28;20089;-61
2023/09/27 04:00:20;;;;;;;19.42;14.30;;;12.90;99.90;;;;;;5077456;28;20040;-60
2023/09/27 04:02:46;;;;;;;17.30;15.27;;;12.90;99.90;;;;;;5091030;28;20028;-61
2023/09/27 04:05:13;;;;;;;15.57;14.05;;;12.90;99.90;;;;;;5073454;28;20040;-60
2023/09/27 04:07:42;;;;;;;16.00;14.35;;;12.90;99.90;;;;;;5095116;28;20085;-61
2023/09/27 04:10:09;;;;;;;15.23;13.63;;;12.90;99.90;;;;;;5074649;28;20048;-61
2023/09/27 04:12:35;;;;;;;16.42;14.20;;;12.80;99.90;;;;;;5103997;28;20031;-60
2023/09/27 04:15:00;;;;;;;16.02;14.25;;;12.80;99.90;;;;;;5102882;28;20038;-60
2023/09/27 04:17:27;;;;;;;15.77;14.07;;;12.80;99.90;;;;;;5099265;28;20032;-60
2023/09/27 04:19:55;;;;;;;17.02;14.48;;;12.80;99.90;;;;;;5110395;28;20108;-60
2023/09/27 04:22:21;;;;;;;16.33;14.68;;;12.80;99.90;;;;;;5105284;28;20397;-61
2023/09/27 04:24:46;;;;;;;16.75;15.05;;;12.80;99.90;;;;;;5097839;28;20040;-60
2023/09/27 04:27:12;;;;;;;15.18;13.68;;;12.80;99.90;;;;;;5089410;28;20141;-61
2023/09/27 04:29:38;;;;;;;15.15;13.60;;;12.80;99.90;;;;;;5107356;28;20490;-61
2023/09/27 04:32:04;;;;;;;16.77;14.98;;;12.80;99.90;;;;;;5104813;28;20039;-61
2023/09/27 04:34:30;;;;;;;16.30;14.60;;;12.80;99.90;;;;;;5104725;28;20042;-60
2023/09/27 04:36:56;;;;;;;16.65;14.82;;;12.80;99.90;;;;;;5105257;28;20075;-61
2023/09/27 04:39:21;;;;;;;17.52;15.07;;;12.70;99.90;;;;;;5080479;28;20036;-60
2023/09/27 04:41:47;;;;;;;17.23;14.27;;;12.70;99.90;;;;;;5082141;28;20242;-61
2023/09/27 04:44:16;;;;;;;16.08;14.38;;;12.70;99.90;;;;;;5074165;28;20059;-60
2023/09/27 04:46:41;;;;;;;15.40;13.80;;;12.70;99.90;;;;;;5094651;28;20047;-60
2023/09/27 04:49:07;;;;;;;15.38;13.80;;;12.70;99.90;;;;;;5107161;28;20036;-61
2023/09/27 04:51:33;;;;;;;16.67;14.88;;;12.70;99.90;;;;;;5096207;28;20050;-60
2023/09/27 04:54:02;;;;;;;17.77;14.90;;;12.70;99.90;;;;;;5091347;28;20039;-61
2023/09/27 04:56:29;;;;;;;17.77;14.77;;;12.70;99.90;;;;;;5087026;28;20028;-60
2023/09/27 04:58:55;;;;;;;15.68;14.18;;;12.70;99.90;;;;;;5110582;28;20172;-61
2023/09/27 05:01:22;;;;;;;16.42;14.55;;;12.70;99.90;;;;;;5093212;28;20068;-60
2023/09/27 05:03:49;;;;;;;17.45;15.65;;;12.70;99.90;;;;;;5078477;28;20052;-61
2023/09/27 05:06:15;;;;;;;16.73;14.95;;;12.70;99.90;;;;;;5094221;28;20036;-61
2023/09/27 05:08:40;;;;;;;16.92;14.57;;;12.70;99.90;;;;;;5105360;28;20402;-61
2023/09/27 05:11:06;;;;;;;18.10;16.25;;;12.70;99.90;;;;;;5102770;28;20040;-61
2023/09/27 05:13:32;;;;;;;17.60;15.77;;;12.70;99.90;;;;;;5081444;28;20039;-61
2023/09/27 05:15:57;;;;;;;17.85;15.85;;;12.70;99.90;;;;;;5092063;28;20040;-60
2023/09/27 05:18:23;;;;;;;18.73;16.77;;;12.80;99.90;;;;;;5086600;28;20043;-61
2023/09/27 05:20:49;;;;;;;19.38;17.30;;;12.80;99.90;;;;;;5088052;28;20578;-61
2023/09/27 05:23:14;;;;;;;18.45;16.23;;;12.80;99.90;;;;;;5102009;28;20036;-62
2023/09/27 05:25:40;;;;;;;19.38;17.48;;;12.90;99.90;;;;;;5101785;28;20036;-61
2023/09/27 05:28:06;;;;;;;19.17;17.17;;;12.90;99.90;;;;;;5082581;28;20043;-62
2023/09/27 05:30:32;;;;;;;19.60;16.63;;;13.00;99.90;;;;;;5078519;28;20052;-62
2023/09/27 05:32:58;;;;;;;20.27;17.85;;;13.00;99.90;;;;;;5108486;28;20040;-61
2023/09/27 05:35:23;;;;;;;21.05;17.83;;;13.00;99.90;;;;;;5083073;28;20067;-62
2023/09/27 05:37:50;;;;;;;22.98;18.77;;;13.00;99.90;;;;;;5112853;28;20039;-62
2023/09/27 05:40:16;;;;;;;19.42;17.33;;;13.00;99.90;;;;;;5083152;28;20126;-61
2023/09/27 05:42:42;;;;;;;21.17;18.98;;;13.00;99.90;;;;;;5090857;28;20087;-61
2023/09/27 05:45:12;;;;;;;25.05;20.83;;;13.00;99.90;;;;;;5085629;28;20530;-61
2023/09/27 05:47:39;;;;;;;21.65;19.30;;;13.00;99.90;;;;;;5097436;28;20127;-62
2023/09/27 05:50:08;;;;;;;23.77;19.80;;;13.10;99.90;;;;;;5074535;28;20044;-62
2023/09/27 05:52:36;;;;;;;21.25;18.48;;;13.10;99.90;;;;;;5095177;28;20098;-61
2023/09/27 05:55:05;;;;;;;20.45;18.35;;;13.10;99.90;;;;;;5093643;28;20049;-61
2023/09/27 05:57:32;;;;;;;19.35;17.25;;;13.10;99.90;;;;;;5078308;28;20501;-62
2023/09/27 05:59:58;;;;;;;21.25;18.95;;;13.20;99.90;;;;;;5077632;28;20035;-62
2023/09/27 06:02:30;;;;;;;21.48;19.00;;;13.20;99.90;;;;;;5076737;28;20183;-61
2023/09/27 06:04:57;;;;;;;23.00;20.20;;;13.20;99.90;;;;;;5093910;28;20039;-62
2023/09/27 06:07:22;;;;;;;21.67;19.38;;;13.20;99.90;;;;;;5094864;28;20040;-61
2023/09/27 06:09:49;;;;;;;21.08;18.98;;;13.30;99.90;;;;;;5078760;28;20059;-62
2023/09/27 06:12:15;;;;;;;23.80;19.35;;;13.30;99.90;;;;;;5073835;28;20066;-62
2023/09/27 06:14:43;;;;;;;22.48;19.08;;;13.30;99.90;;;;;;5074826;28;20036;-61
2023/09/27 06:17:10;;;;;;;22.42;20.02;;;13.30;99.90;;;;;;5093916;28;20039;-62
2023/09/27 06:19:36;;;;;;;23.27;19.85;;;13.30;99.90;;;;;;5096664;28;20032;-61
2023/09/27 06:22:06;;;;;;;23.23;20.08;;;13.30;99.90;;;;;;5076605;28;20039;-61
2023/09/27 06:24:31;;;;;;;22.73;20.33;;;13.40;99.90;;;;;;5075732;28;20055;-61
2023/09/27 06:26:58;;;;;;;21.83;18.70;;;13.40;99.90;;;;;;5093660;28;20043;-61
2023/09/27 06:29:24;;;;;;;22.02;19.83;;;13.40;99.90;;;;;;5078482;28;20048;-61
2023/09/27 06:31:50;;;;;;;21.90;19.58;;;13.40;99.90;;;;;;5093445;28;20040;-61
2023/09/27 06:34:17;;;;;;;22.48;20.13;;;13.50;99.90;;;;;;5057237;28;20071;-61
2023/09/27 06:36:43;;;;;;;27.13;21.23;;;13.50;99.90;;;;;;5063857;28;20123;-61
2023/09/27 06:39:13;;;;;;;21.92;18.98;;;13.50;99.90;;;;;;5073851;28;20048;-61
2023/09/27 06:41:44;;;;;;;21.27;19.17;;;13.60;99.90;;;;;;5094304;28;20039;-62
2023/09/27 06:44:10;;;;;;;21.45;19.30;;;13.60;99.90;;;;;;5056462;28;20044;-62
2023/09/27 06:46:36;;;;;;;22.92;20.02;;;13.70;99.90;;;;;;5080307;28;20367;-62
2023/09/27 06:49:03;;;;;;;20.38;18.33;;;13.80;99.90;;;;;;5092260;28;20081;-62
2023/09/27 06:51:29;;;;;;;22.10;19.35;;;13.90;99.90;;;;;;5097375;28;20040;-62
2023/09/27 06:53:55;;;;;;;22.63;19.70;;;14.00;99.90;;;;;;5082216;28;20925;-61
2023/09/27 06:56:21;;;;;;;22.35;19.75;;;14.10;99.90;;;;;;5101207;28;20036;-61
2023/09/27 06:58:47;;;;;;;20.70;18.50;;;14.20;99.90;;;;;;5078237;28;20036;-61
2023/09/27 07:01:13;;;;;;;27.02;19.60;;;14.30;99.90;;;;;;5060858;28;20055;-61
2023/09/27 07:03:40;;;;;;;22.25;19.15;;;14.40;99.90;;;;;;5082684;28;20051;-62
2023/09/27 07:06:06;;;;;;;22.52;20.17;;;14.50;99.90;;;;;;5091210;28;20471;-62
2023/09/27 07:08:32;;;;;;;22.17;19.75;;;14.60;99.90;;;;;;5074816;28;20051;-62
2023/09/27 07:11:09;;;;;;;21.27;19.02;;;14.60;99.90;;;;;;5094867;28;20088;-62
2023/09/27 07:13:35;;;;;;;20.90;18.70;;;14.70;99.90;;;;;;5082418;28;20060;-61
2023/09/27 07:16:21;;;;;;;19.98;17.98;;;14.80;99.90;;;;;;5084325;28;20657;-62
2023/09/27 07:18:48;;;;;;;21.08;18.88;;;14.80;99.90;;;;;;5101428;28;20529;-62
2023/09/27 07:21:14;;;;;;;20.42;18.38;;;14.90;99.90;;;;;;5080526;28;20055;-62
2023/09/27 07:23:40;;;;;;;19.40;17.45;;;14.80;99.90;;;;;;5095225;28;20039;-62
2023/09/27 07:26:05;;;;;;;18.95;16.95;;;14.90;99.90;;;;;;5111158;28;20036;-62
2023/09/27 07:28:32;;;;;;;22.90;17.58;;;14.90;99.90;;;;;;5092394;28;20100;-61
2023/09/27 07:30:58;;;;;;;19.77;17.88;;;14.90;99.90;;;;;;5105001;28;20031;-62
2023/09/27 07:33:25;;;;;;;20.88;18.67;;;15.00;99.90;;;;;;5100776;28;20042;-62
2023/09/27 07:35:52;;;;;;;20.17;17.60;;;15.00;99.90;;;;;;5105109;28;20040;-62
2023/09/27 07:38:18;;;;;;;20.95;18.75;;;15.00;99.90;;;;;;5109303;28;20159;-61
2023/09/27 07:40:47;;;;;;;21.15;18.60;;;15.10;99.90;;;;;;5109045;28;20047;-62
2023/09/27 07:43:15;;;;;;;20.17;18.02;;;15.10;99.90;;;;;;5070703;28;20098;-61
2023/09/27 07:45:42;;;;;;;20.05;17.95;;;15.10;99.90;;;;;;5081789;28;20101;-61
2023/09/27 07:48:08;;;;;;;22.90;19.23;;;15.20;99.90;;;;;;5088989;28;20510;-61
2023/09/27 07:50:37;;;;;;;21.52;19.33;;;15.30;99.90;;;;;;5090531;28;20024;-61
2023/09/27 07:53:06;;;;;;;21.25;19.15;;;15.30;99.90;;;;;;5090113;28;20040;-62
2023/09/27 07:55:32;;;;;;;21.17;18.77;;;15.30;99.90;;;;;;5088674;28;20494;-61
2023/09/27 07:57:59;;;;;;;21.10;18.90;;;15.40;99.90;;;;;;5088246;28;20044;-61
2023/09/27 08:00:29;;;;;;;21.48;18.55;;;15.40;99.90;;;;;;5080210;28;20395;-61
2023/09/27 08:02:57;;;;;;;22.27;19.08;;;15.40;99.90;;;;;;5070107;28;20090;-61
2023/09/27 08:05:23;;;;;;;22.90;20.63;;;15.70;99.90;;;;;;5069808;28;20382;-61
2023/09/27 08:07:50;;;;;;;22.35;19.90;;;15.90;99.90;;;;;;5069983;28;20040;-62
2023/09/27 08:10:17;;;;;;;20.70;18.60;;;16.20;99.90;;;;;;5069809;28;20047;-62
2023/09/27 08:12:43;;;;;;;23.25;19.40;;;16.40;99.90;;;;;;5069752;28;20043;-61
2023/09/27 08:15:12;;;;;;;21.33;19.08;;;16.70;99.90;;;;;;5068398;28;20036;-62
2023/09/27 08:17:38;;;;;;;22.30;18.90;;;16.80;99.90;;;;;;5078953;28;20040;-61
2023/09/27 08:20:09;;;;;;;19.92;17.83;;;17.00;99.90;;;;;;5070400;28;20032;-62
2023/09/27 08:22:36;;;;;;;20.67;18.20;;;17.20;99.90;;;;;;5069837;28;20082;-62
2023/09/27 08:25:04;;;;;;;19.08;17.17;;;17.30;99.90;;;;;;5068573;28;20048;-62
2023/09/27 08:27:30;;;;;;;21.75;19.42;;;17.40;99.90;;;;;;5077220;28;20077;-62
2023/09/27 08:29:56;;;;;;;20.00;17.98;;;17.60;99.90;;;;;;5068641;28;20074;-61
2023/09/27 08:32:21;;;;;;;20.00;17.98;;;17.70;99.90;;;;;;5071355;28;20032;-62
2023/09/27 08:34:48;;;;;;;19.02;17.05;;;17.80;99.90;;;;;;5088605;28;20398;-61
2023/09/27 08:37:14;;;;;;;20.35;17.35;;;18.00;99.90;;;;;;5078570;28;20033;-62
2023/09/27 08:39:39;;;;;;;19.05;16.95;;;18.20;99.90;;;;;;5075106;28;20171;-62
2023/09/27 08:42:05;;;;;;;20.45;18.42;;;18.40;99.90;;;;;;5086827;28;20168;-62
2023/09/27 08:44:32;;;;;;;19.55;17.35;;;18.50;99.90;;;;;;5088768;28;20476;-62
2023/09/27 08:46:59;;;;;;;18.42;16.42;;;18.70;99.90;;;;;;5072223;28;20522;-62
2023/09/27 08:49:25;;;;;;;18.65;16.65;;;18.70;99.90;;;;;;5098324;28;20043;-62
2023/09/27 08:51:52;;;;;;;18.77;16.80;;;18.70;99.90;;;;;;5080844;28;20367;-62
2023/09/27 08:54:20;;;;;;;20.95;16.73;;;18.70;99.90;;;;;;5072136;28;20124;-62
2023/09/27 08:56:53;;;;;;;20.30;18.13;;;18.80;99.90;;;;;;5072802;28;20036;-62
2023/09/27 08:59:20;;;;;;;20.00;17.95;;;18.90;99.90;;;;;;5074332;28;20123;-61
2023/09/27 09:01:47;;;;;;;20.98;16.85;;;19.00;99.90;;;;;;5075231;28;20055;-62
2023/09/27 09:04:13;;;;;;;20.02;17.77;;;19.10;99.90;;;;;;5092984;28;20135;-61
2023/09/27 09:06:40;;;;;;;18.23;16.17;;;19.20;99.90;;;;;;5093173;28;20027;-62
2023/09/27 09:09:10;;;;;;;18.33;16.10;;;19.50;99.90;;;;;;5059005;28;20126;-62
2023/09/27 09:11:43;;;;;;;16.98;15.18;;;19.80;99.90;;;;;;5077854;28;20177;-61
2023/09/27 09:14:10;;;;;;;15.95;14.35;;;20.10;99.90;;;;;;5101692;28;20039;-61
2023/09/27 09:16:47;;;;;;;14.68;13.00;;;20.20;99.90;;;;;;5095156;28;20036;-62
2023/09/27 09:19:22;;;;;;;20.55;14.65;;;20.20;99.90;;;;;;5075410;28;20509;-62
2023/09/27 09:22:03;;;;;;;16.40;14.13;;;20.40;99.90;;;;;;5097727;28;20108;-61
2023/09/27 09:24:29;;;;;;;14.02;12.55;;;20.50;99.90;;;;;;5092531;28;20036;-61
2023/09/27 09:27:07;;;;;;;13.77;12.10;;;20.60;99.90;;;;;;5081201;28;20138;-62
2023/09/27 09:29:47;;;;;;;17.88;13.02;;;20.80;99.90;;;;;;5083495;28;20071;-62
2023/09/27 09:32:15;;;;;;;15.13;13.52;;;20.90;99.90;;;;;;5090599;28;20059;-62
2023/09/27 09:34:45;;;;;;;15.15;13.50;;;20.80;99.90;;;;;;5096276;28;20368;-62
2023/09/27 09:37:17;;;;;;;16.80;13.70;;;20.60;99.90;;;;;;5093023;28;20039;-62
2023/09/27 09:39:44;;;;;;;16.15;13.32;;;20.50;99.90;;;;;;5077191;28;20490;-62
2023/09/27 09:42:10;;;;;;;16.00;13.13;;;20.30;99.90;;;;;;5099826;28;20039;-62
2023/09/27 09:44:36;;;;;;;13.85;11.93;;;20.20;99.90;;;;;;5098227;28;20046;-62
2023/09/27 09:47:12;;;;;;;14.70;13.00;;;20.20;99.90;;;;;;5078275;28;20397;-62
2023/09/27 09:49:38;;;;;;;15.88;13.40;;;20.40;99.90;;;;;;5074830;28;20039;-62
2023/09/27 09:52:04;;;;;;;14.57;13.07;;;20.60;99.90;;;;;;5092971;28;20093;-62
2023/09/27 09:54:46;;;;;;;15.57;13.00;;;20.80;99.90;;;;;;5092501;28;20047;-62
2023/09/27 09:57:13;;;;;;;16.35;13.15;;;21.10;99.90;;;;;;5094155;28;20062;-62
2023/09/27 10:00:18;;;;;;;17.45;12.48;;;21.30;99.90;;;;;;5081351;28;20040;-62
2023/09/27 10:02:53;;;;;;;15.05;12.00;;;21.40;99.90;;;;;;5073586;28;20433;-62
2023/09/27 10:05:19;;;;;;;14.65;11.70;;;21.30;99.90;;;;;;5080785;28;20063;-62
2023/09/27 10:07:46;;;;;;;13.80;11.32;;;21.10;99.90;;;;;;5074355;28;20039;-62
2023/09/27 10:10:15;;;;;;;10.23;7.75;;;21.00;99.90;;;;;;5084558;28;20047;-61
2023/09/27 10:12:50;;;;;;;11.40;7.00;;;20.90;99.90;;;;;;5100347;28;20115;-62
2023/09/27 10:15:18;;;;;;;10.82;7.45;;;20.80;99.90;;;;;;5080971;28;20070;-62
2023/09/27 10:17:45;;;;;;;9.55;7.35;;;20.90;99.90;;;;;;5083065;28;20046;-61
2023/09/27 10:20:22;;;;;;;10.18;7.53;;;21.10;99.90;;;;;;5073980;28;20499;-63
2023/09/27 10:22:49;;;;;;;12.25;8.43;;;21.40;99.90;;;;;;5068474;28;20176;-62
2023/09/27 10:25:23;;;;;;;10.70;8.85;;;21.70;99.90;;;;;;5093295;28;20111;-62
2023/09/27 10:28:01;;;;;;;10.32;8.90;;;21.70;99.90;;;;;;5088520;28;20043;-62
2023/09/27 10:31:06;;;;;;;12.13;9.73;;;21.70;99.90;;;;;;5078565;28;20069;-62
2023/09/27 10:33:32;;;;;;;14.20;10.75;;;21.50;99.90;;;;;;5006157;28;20226;-62
2023/09/27 10:36:03;;;;;;;12.25;10.77;;;21.40;99.90;;;;;;4999996;28;20029;-62
2023/09/27 10:38:44;;;;;;;12.00;10.03;;;21.40;99.90;;;;;;4998260;28;20056;-62
2023/09/27 10:41:38;;;;;;;13.23;11.25;;;21.60;99.90;;;;;;5014001;28;20496;-62
2023/09/27 10:44:04;;;;;;;11.57;9.80;;;21.80;99.90;;;;;;5012231;28;20054;-62
2023/09/27 10:46:49;;;;;;;12.68;10.93;;;21.90;99.90;;;;;;5012162;28;20125;-62
2023/09/27 10:49:22;;;;;;;12.70;9.85;;;22.10;99.90;;;;;;5015182;28;20045;-62
2023/09/27 10:51:48;;;;;;;12.73;9.55;;;22.20;99.90;;;;;;5003729;28;20108;-62
2023/09/27 10:54:14;;;;;;;11.35;9.98;;;22.30;99.90;;;;;;5013140;28;20191;-62
2023/09/27 10:56:44;;;;;;;13.82;10.38;;;22.40;99.90;;;;;;5013766;28;20458;-61
2023/09/27 10:59:11;;;;;;;13.80;11.50;;;22.30;99.90;;;;;;5002478;28;20123;-62
2023/09/27 11:01:43;;;;;;;14.85;12.07;;;22.20;99.90;;;;;;5007823;28;20424;-62
2023/09/27 11:04:12;;;;;;;14.52;13.02;;;22.20;99.90;;;;;;5011520;28;20124;-62
2023/09/27 11:06:38;;;;;;;13.90;12.50;;;22.10;99.90;;;;;;5028633;28;20045;-62
2023/09/27 11:09:08;;;;;;;13.73;11.85;;;22.00;99.90;;;;;;5028649;28;20047;-62
2023/09/27 11:11:34;;;;;;;13.32;11.93;;;21.90;99.90;;;;;;5092768;28;20038;-62
2023/09/27 11:14:00;;;;;;;13.50;12.18;;;21.80;99.90;;;;;;5073057;28;20040;-62
2023/09/27 11:16:26;;;;;;;13.88;12.40;;;21.70;99.90;;;;;;5087739;28;20084;-61
2023/09/27 11:18:52;;;;;;;13.65;12.25;;;21.70;99.90;;;;;;5090966;28;20165;-62
2023/09/27 11:21:19;;;;;;;13.73;12.23;;;21.70;99.90;;;;;;5055475;28;20565;-62
2023/09/27 11:23:55;;;;;;;15.60;12.68;;;21.70;99.90;;;;;;5074064;28;20039;-62
2023/09/27 11:26:29;;;;;;;13.52;12.07;;;21.90;99.90;;;;;;5072729;28;20044;-62
2023/09/27 11:28:59;;;;;;;16.27;13.18;;;22.00;99.90;;;;;;5073009;28;20051;-62
2023/09/27 11:31:26;;;;;;;15.48;13.77;;;22.00;99.90;;;;;;5073167;28;20051;-62
2023/09/27 11:33:52;;;;;;;16.58;12.57;;;22.10;99.90;;;;;;5073025;28;20048;-61
2023/09/27 11:36:18;;;;;;;14.63;13.10;;;22.00;99.90;;;;;;5073384;28;20652;-62
2023/09/27 11:38:52;;;;;;;15.23;12.80;;;21.90;99.90;;;;;;5091085;28;20043;-62
2023/09/27 11:41:18;;;;;;;17.98;13.07;;;21.90;99.90;;;;;;5073133;28;20086;-62
2023/09/27 11:43:45;;;;;;;15.55;13.77;;;21.70;99.90;;;;;;5090784;28;20051;-62
2023/09/27 11:46:11;;;;;;;15.40;13.80;;;21.60;99.90;;;;;;5091363;28;20395;-62
2023/09/27 11:48:37;;;;;;;15.85;13.68;;;21.50;99.90;;;;;;5072557;28;20123;-62
2023/09/27 11:51:04;;;;;;;14.82;12.63;;;21.40;99.90;;;;;;5072550;28;20620;-62
2023/09/27 11:53:30;;;;;;;15.40;12.90;;;21.40;99.90;;;;;;5073061;28;20040;-62
2023/09/27 11:55:56;;;;;;;13.18;11.85;;;21.40;99.90;;;;;;5090783;28;20483;-62
2023/09/27 11:58:23;;;;;;;14.65;11.80;;;21.50;99.90;;;;;;5090802;28;20036;-62
2023/09/27 12:00:49;;;;;;;17.10;12.57;;;21.60;99.90;;;;;;5072741;28;20125;-62
2023/09/27 12:03:15;;;;;;;17.40;12.55;;;21.50;99.90;;;;;;5091091;28;20028;-62
2023/09/27 12:05:40;;;;;;;14.43;12.82;;;21.50;99.90;;;;;;5090607;28;20044;-62
2023/09/27 12:08:08;;;;;;;15.63;12.38;;;21.50;99.90;;;;;;5072742;28;20035;-62
2023/09/27 12:10:34;;;;;;;15.55;11.70;;;21.60;99.90;;;;;;5055557;28;20047;-62
2023/09/27 12:13:00;;;;;;;14.02;12.63;;;21.70;99.90;;;;;;5090519;28;20040;-62
2023/09/27 12:15:25;;;;;;;13.65;12.25;;;21.70;99.90;;;;;;5072653;28;20040;-62
2023/09/27 12:17:52;;;;;;;14.25;12.30;;;21.70;99.90;;;;;;5090418;28;20039;-62
2023/09/27 12:20:18;;;;;;;15.05;12.85;;;21.80;99.90;;;;;;5055789;28;20360;-61
2023/09/27 12:22:43;;;;;;;15.27;13.65;;;21.80;99.90;;;;;;5072284;28;20046;-62
2023/09/27 12:25:11;;;;;;;18.90;13.25;;;21.90;99.90;;;;;;5092750;28;20035;-62
2023/09/27 12:27:37;;;;;;;16.90;12.95;;;21.90;99.90;;;;;;5111247;28;20398;-62
2023/09/27 12:30:05;;;;;;;16.75;13.57;;;21.90;99.90;;;;;;5092600;28;20047;-62